sensor_id;sensor_type;location;lat;lon;timestamp;pressure;altitude;pressure_sealevel;temperature;humidity
78198;BME280;67472;51.554;7.812;2023-08-01T00:02:30;99628.31;;;17.04;100.00
78198;BME280;67472;51.554;7.812;2023-08-01T00:05:17;99640.44;;;17.00;100.00
78198;BME280;67472;51.554;7.812;2023-08-01T00:08:03;99644.25;;;16.91;100.00
78198;BME280;67472;51.554;7.812;2023-08-01T00:10:49;99609.50;;;16.57;100.00
78198;BME280;67472;51.554;7.812;2023-08-01T00:13:36;99650.47;;;16.56;100.00
78198;BME280;67472;51.554;7.812;2023-08-01T00:16:23;99656.38;;;16.51;100.00
78198;BME280;67472;51.554;7.812;2023-08-01T00:19:09;99676.66;;;16.52;100.00
78198;BME280;67472;51.554;7.812;2023-08-01T00:21:57;99677.63;;;16.45;100.00
78198;BME280;67472;51.554;7.812;2023-08-01T00:24:43;99680.06;;;16.25;100.00
78198;BME280;67472;51.554;7.812;2023-08-01T00:27:29;99690.28;;;16.21;100.00
78198;BME280;67472;51.554;7.812;2023-08-01T00:30:17;99693.75;;;16.22;100.00
78198;BME280;67472;51.554;7.812;2023-08-01T00:33:04;99678.44;;;16.09;100.00
78198;BME280;67472;51.554;7.812;2023-08-01T00:35:53;99678.63;;;16.08;100.00
78198;BME280;67472;51.554;7.812;2023-08-01T00:38:40;99697.38;;;16.00;100.00
78198;BME280;67472;51.554;7.812;2023-08-01T00:41:28;99688.09;;;15.96;100.00
78198;BME280;67472;51.554;7.812;2023-08-01T00:44:14;99663.59;;;15.86;100.00
78198;BME280;67472;51.554;7.812;2023-08-01T00:47:00;99704.09;;;15.96;100.00
78198;BME280;67472;51.554;7.812;2023-08-01T00:49:48;99722.63;;;16.04;100.00
78198;BME280;67472;51.554;7.812;2023-08-01T00:52:35;99738.06;;;16.08;100.00
78198;BME280;67472;51.554;7.812;2023-08-01T00:55:21;99749.75;;;16.07;100.00
78198;BME280;67472;51.554;7.812;2023-08-01T00:58:08;99748.91;;;16.07;100.00
78198;BME280;67472;51.554;7.812;2023-08-01T01:00:54;99741.81;;;16.14;100.00
78198;BME280;67472;51.554;7.812;2023-08-01T01:03:41;99757.00;;;16.13;100.00
78198;BME280;67472;51.554;7.812;2023-08-01T01:06:32;99735.69;;;15.99;100.00
78198;BME280;67472;51.554;7.812;2023-08-01T01:09:20;99740.66;;;16.02;100.00
78198;BME280;67472;51.554;7.812;2023-08-01T01:12:07;99733.19;;;16.12;100.00
78198;BME280;67472;51.554;7.812;2023-08-01T01:14:53;99727.03;;;16.11;100.00
78198;BME280;67472;51.554;7.812;2023-08-01T01:17:39;99734.94;;;16.19;100.00
78198;BME280;67472;51.554;7.812;2023-08-01T01:20:34;99740.16;;;16.27;100.00
78198;BME280;67472;51.554;7.812;2023-08-01T01:23:21;99738.03;;;16.23;100.00
78198;BME280;67472;51.554;7.812;2023-08-01T01:26:08;99741.72;;;16.22;100.00
78198;BME280;67472;51.554;7.812;2023-08-01T01:28:55;99749.78;;;16.28;100.00
78198;BME280;67472;51.554;7.812;2023-08-01T01:31:43;99738.50;;;16.26;100.00
78198;BME280;67472;51.554;7.812;2023-08-01T01:34:29;99720.78;;;16.19;100.00
78198;BME280;67472;51.554;7.812;2023-08-01T01:37:17;99710.88;;;16.13;100.00
78198;BME280;67472;51.554;7.812;2023-08-01T01:40:04;99710.50;;;16.16;100.00
78198;BME280;67472;51.554;7.812;2023-08-01T01:42:51;99711.97;;;16.18;100.00
78198;BME280;67472;51.554;7.812;2023-08-01T01:45:37;99708.63;;;16.31;100.00
78198;BME280;67472;51.554;7.812;2023-08-01T01:48:23;99704.69;;;16.27;100.00
78198;BME280;67472;51.554;7.812;2023-08-01T01:51:09;99698.53;;;16.26;100.00
78198;BME280;67472;51.554;7.812;2023-08-01T01:53:57;99694.84;;;16.27;100.00
78198;BME280;67472;51.554;7.812;2023-08-01T01:56:43;99695.69;;;16.28;100.00
78198;BME280;67472;51.554;7.812;2023-08-01T01:59:29;99693.03;;;16.28;100.00
78198;BME280;67472;51.554;7.812;2023-08-01T02:02:15;99686.97;;;16.19;100.00
78198;BME280;67472;51.554;7.812;2023-08-01T02:05:02;99673.91;;;16.24;100.00
78198;BME280;67472;51.554;7.812;2023-08-01T02:07:48;99665.09;;;16.24;100.00
78198;BME280;67472;51.554;7.812;2023-08-01T02:10:36;99667.91;;;16.22;100.00
78198;BME280;67472;51.554;7.812;2023-08-01T02:13:22;99656.84;;;16.19;100.00
78198;BME280;67472;51.554;7.812;2023-08-01T02:16:08;99641.47;;;16.21;100.00
78198;BME280;67472;51.554;7.812;2023-08-01T02:18:55;99645.25;;;16.12;100.00
78198;BME280;67472;51.554;7.812;2023-08-01T02:21:42;99657.59;;;16.13;100.00
78198;BME280;67472;51.554;7.812;2023-08-01T02:24:29;99661.25;;;16.12;100.00
78198;BME280;67472;51.554;7.812;2023-08-01T02:27:17;99653.38;;;16.04;100.00
78198;BME280;67472;51.554;7.812;2023-08-01T02:30:04;99654.00;;;16.06;100.00
78198;BME280;67472;51.554;7.812;2023-08-01T02:32:51;99643.34;;;16.06;100.00
78198;BME280;67472;51.554;7.812;2023-08-01T02:35:37;99640.69;;;16.06;100.00
78198;BME280;67472;51.554;7.812;2023-08-01T02:38:23;99645.13;;;15.99;100.00
78198;BME280;67472;51.554;7.812;2023-08-01T02:41:10;99645.50;;;15.96;100.00
78198;BME280;67472;51.554;7.812;2023-08-01T02:43:57;99654.75;;;16.00;100.00
78198;BME280;67472;51.554;7.812;2023-08-01T02:46:43;99640.44;;;16.01;100.00
78198;BME280;67472;51.554;7.812;2023-08-01T02:49:29;99649.16;;;15.95;100.00
78198;BME280;67472;51.554;7.812;2023-08-01T02:52:15;99655.78;;;15.99;100.00
78198;BME280;67472;51.554;7.812;2023-08-01T02:55:01;99655.56;;;16.00;100.00
78198;BME280;67472;51.554;7.812;2023-08-01T02:57:47;99646.75;;;16.00;100.00
78198;BME280;67472;51.554;7.812;2023-08-01T03:00:37;99645.66;;;15.94;100.00
78198;BME280;67472;51.554;7.812;2023-08-01T03:03:23;99653.13;;;15.99;100.00
78198;BME280;67472;51.554;7.812;2023-08-01T03:06:09;99647.69;;;15.92;100.00
78198;BME280;67472;51.554;7.812;2023-08-01T03:08:55;99653.56;;;15.88;100.00
78198;BME280;67472;51.554;7.812;2023-08-01T03:11:41;99648.63;;;15.85;100.00
78198;BME280;67472;51.554;7.812;2023-08-01T03:14:27;99643.69;;;15.81;100.00
78198;BME280;67472;51.554;7.812;2023-08-01T03:17:15;99639.34;;;15.80;100.00
78198;BME280;67472;51.554;7.812;2023-08-01T03:20:01;99631.28;;;15.74;100.00
78198;BME280;67472;51.554;7.812;2023-08-01T03:22:48;99635.59;;;15.75;100.00
78198;BME280;67472;51.554;7.812;2023-08-01T03:25:34;99620.88;;;15.79;100.00
78198;BME280;67472;51.554;7.812;2023-08-01T03:28:21;99620.88;;;15.79;100.00
78198;BME280;67472;51.554;7.812;2023-08-01T03:31:07;99610.59;;;15.76;100.00
78198;BME280;67472;51.554;7.812;2023-08-01T03:33:54;99599.53;;;15.72;100.00
78198;BME280;67472;51.554;7.812;2023-08-01T03:36:43;99600.16;;;15.74;100.00
78198;BME280;67472;51.554;7.812;2023-08-01T03:39:30;99604.00;;;15.87;100.00
78198;BME280;67472;51.554;7.812;2023-08-01T03:42:16;99602.59;;;15.91;100.00
78198;BME280;67472;51.554;7.812;2023-08-01T03:45:05;99595.38;;;15.85;100.00
78198;BME280;67472;51.554;7.812;2023-08-01T03:47:51;99587.22;;;15.71;100.00
78198;BME280;67472;51.554;7.812;2023-08-01T03:50:38;99591.34;;;15.74;100.00
78198;BME280;67472;51.554;7.812;2023-08-01T03:53:24;99590.50;;;15.73;100.00
78198;BME280;67472;51.554;7.812;2023-08-01T03:56:10;99592.16;;;15.74;100.00
78198;BME280;67472;51.554;7.812;2023-08-01T03:58:57;99596.13;;;15.78;100.00
78198;BME280;67472;51.554;7.812;2023-08-01T04:01:43;99593.38;;;15.72;100.00
78198;BME280;67472;51.554;7.812;2023-08-01T04:04:29;99594.56;;;15.69;100.00
78198;BME280;67472;51.554;7.812;2023-08-01T04:07:17;99603.19;;;15.71;100.00
78198;BME280;67472;51.554;7.812;2023-08-01T04:10:04;99612.47;;;15.75;100.00
78198;BME280;67472;51.554;7.812;2023-08-01T04:12:51;99612.00;;;15.72;100.00
78198;BME280;67472;51.554;7.812;2023-08-01T04:15:37;99615.19;;;15.82;100.00
78198;BME280;67472;51.554;7.812;2023-08-01T04:18:23;99624.75;;;15.76;100.00
78198;BME280;67472;51.554;7.812;2023-08-01T04:21:09;99624.31;;;15.73;100.00
78198;BME280;67472;51.554;7.812;2023-08-01T04:23:56;99628.69;;;15.80;100.00
78198;BME280;67472;51.554;7.812;2023-08-01T04:26:43;99639.72;;;15.77;100.00
78198;BME280;67472;51.554;7.812;2023-08-01T04:29:29;99638.25;;;15.75;100.00
78198;BME280;67472;51.554;7.812;2023-08-01T04:32:15;99641.19;;;15.80;100.00
78198;BME280;67472;51.554;7.812;2023-08-01T04:35:02;99646.41;;;15.88;100.00
78198;BME280;67472;51.554;7.812;2023-08-01T04:37:50;99649.53;;;15.92;100.00
78198;BME280;67472;51.554;7.812;2023-08-01T04:40:37;99650.50;;;16.05;100.00
78198;BME280;67472;51.554;7.812;2023-08-01T04:43:23;99647.13;;;15.97;100.00
78198;BME280;67472;51.554;7.812;2023-08-01T04:46:09;99636.47;;;15.97;100.00
78198;BME280;67472;51.554;7.812;2023-08-01T04:48:55;99632.19;;;15.96;100.00
78198;BME280;67472;51.554;7.812;2023-08-01T04:51:41;99635.38;;;15.91;100.00
78198;BME280;67472;51.554;7.812;2023-08-01T04:54:27;99634.47;;;15.99;100.00
78198;BME280;67472;51.554;7.812;2023-08-01T04:57:15;99642.13;;;16.08;100.00
78198;BME280;67472;51.554;7.812;2023-08-01T05:00:02;99635.25;;;15.99;100.00
78198;BME280;67472;51.554;7.812;2023-08-01T05:02:49;99634.63;;;15.97;100.00
78198;BME280;67472;51.554;7.812;2023-08-01T05:05:35;99630.34;;;15.96;100.00
78198;BME280;67472;51.554;7.812;2023-08-01T05:08:21;99632.22;;;16.02;100.00
78198;BME280;67472;51.554;7.812;2023-08-01T05:11:07;99637.19;;;16.05;100.00
78198;BME280;67472;51.554;7.812;2023-08-01T05:13:55;99626.47;;;15.99;100.00
78198;BME280;67472;51.554;7.812;2023-08-01T05:16:41;99631.84;;;16.05;100.00
78198;BME280;67472;51.554;7.812;2023-08-01T05:19:27;99624.25;;;16.02;100.00
78198;BME280;67472;51.554;7.812;2023-08-01T05:22:13;99624.94;;;15.90;100.00
78198;BME280;67472;51.554;7.812;2023-08-01T05:24:59;99617.78;;;15.90;100.00
78198;BME280;67472;51.554;7.812;2023-08-01T05:27:46;99621.06;;;15.92;100.00
78198;BME280;67472;51.554;7.812;2023-08-01T05:30:33;99618.41;;;15.92;100.00
78198;BME280;67472;51.554;7.812;2023-08-01T05:33:20;99616.59;;;15.78;100.00
78198;BME280;67472;51.554;7.812;2023-08-01T05:36:06;99614.38;;;15.81;100.00
78198;BME280;67472;51.554;7.812;2023-08-01T05:38:52;99613.94;;;15.78;100.00
78198;BME280;67472;51.554;7.812;2023-08-01T05:41:38;99611.91;;;15.80;100.00
78198;BME280;67472;51.554;7.812;2023-08-01T05:44:25;99603.19;;;15.71;100.00
78198;BME280;67472;51.554;7.812;2023-08-01T05:47:13;99599.59;;;15.79;100.00
78198;BME280;67472;51.554;7.812;2023-08-01T05:49:59;99595.66;;;15.75;100.00
78198;BME280;67472;51.554;7.812;2023-08-01T05:52:45;99584.81;;;15.76;100.00
78198;BME280;67472;51.554;7.812;2023-08-01T05:55:31;99585.19;;;15.73;100.00
78198;BME280;67472;51.554;7.812;2023-08-01T05:58:18;99580.34;;;15.62;100.00
78198;BME280;67472;51.554;7.812;2023-08-01T06:01:05;99585.38;;;15.72;100.00
78198;BME280;67472;51.554;7.812;2023-08-01T06:03:52;99583.59;;;15.79;100.00
78198;BME280;67472;51.554;7.812;2023-08-01T06:06:39;99578.75;;;15.82;100.00
78198;BME280;67472;51.554;7.812;2023-08-01T06:09:25;99575.16;;;15.90;100.00
78198;BME280;67472;51.554;7.812;2023-08-01T06:12:11;99563.69;;;15.90;100.00
78198;BME280;67472;51.554;7.812;2023-08-01T06:14:57;99560.34;;;15.88;100.00
78198;BME280;67472;51.554;7.812;2023-08-01T06:17:44;99567.91;;;15.84;100.00
78198;BME280;67472;51.554;7.812;2023-08-01T06:20:31;99562.91;;;15.96;100.00
78198;BME280;67472;51.554;7.812;2023-08-01T06:23:17;99559.13;;;16.05;100.00
78198;BME280;67472;51.554;7.812;2023-08-01T06:26:03;99555.00;;;16.23;100.00
78198;BME280;67472;51.554;7.812;2023-08-01T06:28:49;99539.81;;;16.03;100.00
78198;BME280;67472;51.554;7.812;2023-08-01T06:31:37;99531.91;;;16.09;100.00
78198;BME280;67472;51.554;7.812;2023-08-01T06:34:23;99535.66;;;16.15;100.00
78198;BME280;67472;51.554;7.812;2023-08-01T06:37:12;99529.88;;;16.11;100.00
78198;BME280;67472;51.554;7.812;2023-08-01T06:39:58;99538.38;;;16.21;100.00
78198;BME280;67472;51.554;7.812;2023-08-01T06:42:44;99531.41;;;16.20;100.00
78198;BME280;67472;51.554;7.812;2023-08-01T06:45:30;99522.31;;;16.15;100.00
78198;BME280;67472;51.554;7.812;2023-08-01T06:48:16;99508.47;;;16.26;100.00
78198;BME280;67472;51.554;7.812;2023-08-01T06:51:03;99513.06;;;16.32;100.00
78198;BME280;67472;51.554;7.812;2023-08-01T06:53:51;99507.72;;;16.32;100.00
78198;BME280;67472;51.554;7.812;2023-08-01T06:56:37;99494.47;;;16.38;100.00
78198;BME280;67472;51.554;7.812;2023-08-01T06:59:23;99492.13;;;16.29;100.00
78198;BME280;67472;51.554;7.812;2023-08-01T07:02:09;99490.72;;;16.33;100.00
78198;BME280;67472;51.554;7.812;2023-08-01T07:04:55;99479.19;;;16.26;100.00
78198;BME280;67472;51.554;7.812;2023-08-01T07:07:42;99480.59;;;16.22;100.00
78198;BME280;67472;51.554;7.812;2023-08-01T07:10:29;99475.59;;;16.12;100.00
78198;BME280;67472;51.554;7.812;2023-08-01T07:13:15;99488.91;;;16.12;100.00
78198;BME280;67472;51.554;7.812;2023-08-01T07:16:04;99487.59;;;16.02;100.00
78198;BME280;67472;51.554;7.812;2023-08-01T07:18:50;99487.81;;;16.07;100.00
78198;BME280;67472;51.554;7.812;2023-08-01T07:21:36;99501.41;;;16.12;100.00
78198;BME280;67472;51.554;7.812;2023-08-01T07:24:22;99494.72;;;16.22;100.00
78198;BME280;67472;51.554;7.812;2023-08-01T07:27:10;99501.06;;;16.43;100.00
78198;BME280;67472;51.554;7.812;2023-08-01T07:29:57;99503.63;;;16.57;100.00
78198;BME280;67472;51.554;7.812;2023-08-01T07:32:43;99496.69;;;16.56;100.00
78198;BME280;67472;51.554;7.812;2023-08-01T07:35:29;99476.34;;;16.55;100.00
78198;BME280;67472;51.554;7.812;2023-08-01T07:38:15;99479.34;;;16.73;100.00
78198;BME280;67472;51.554;7.812;2023-08-01T07:41:02;99467.69;;;16.81;100.00
78198;BME280;67472;51.554;7.812;2023-08-01T07:43:50;99453.31;;;16.75;100.00
78198;BME280;67472;51.554;7.812;2023-08-01T07:46:36;99451.69;;;16.74;100.00
78198;BME280;67472;51.554;7.812;2023-08-01T07:49:22;99443.06;;;16.79;100.00
78198;BME280;67472;51.554;7.812;2023-08-01T07:52:08;99427.03;;;16.72;100.00
78198;BME280;67472;51.554;7.812;2023-08-01T07:54:54;99435.41;;;16.69;100.00
78198;BME280;67472;51.554;7.812;2023-08-01T07:57:42;99426.59;;;16.69;100.00
78198;BME280;67472;51.554;7.812;2023-08-01T08:00:29;99434.38;;;16.64;100.00
78198;BME280;67472;51.554;7.812;2023-08-01T08:03:15;99426.75;;;16.54;100.00
78198;BME280;67472;51.554;7.812;2023-08-01T08:06:02;99421.78;;;16.51;100.00
78198;BME280;67472;51.554;7.812;2023-08-01T08:08:50;99425.00;;;16.47;100.00
78198;BME280;67472;51.554;7.812;2023-08-01T08:11:36;99427.63;;;16.40;100.00
78198;BME280;67472;51.554;7.812;2023-08-01T08:14:22;99445.22;;;16.34;100.00
78198;BME280;67472;51.554;7.812;2023-08-01T08:17:10;99448.53;;;16.36;100.00
78198;BME280;67472;51.554;7.812;2023-08-01T08:19:56;99454.84;;;16.57;100.00
78198;BME280;67472;51.554;7.812;2023-08-01T08:22:42;99466.75;;;16.95;100.00
78198;BME280;67472;51.554;7.812;2023-08-01T08:25:28;99475.94;;;17.20;100.00
78198;BME280;67472;51.554;7.812;2023-08-01T08:28:14;99456.69;;;17.38;100.00
78198;BME280;67472;51.554;7.812;2023-08-01T08:31:00;99428.38;;;17.50;100.00
78198;BME280;67472;51.554;7.812;2023-08-01T08:33:49;99415.09;;;17.76;100.00
78198;BME280;67472;51.554;7.812;2023-08-01T08:36:35;99394.78;;;17.95;100.00
78198;BME280;67472;51.554;7.812;2023-08-01T08:39:21;99376.09;;;17.82;100.00
78198;BME280;67472;51.554;7.812;2023-08-01T08:42:07;99360.44;;;17.98;100.00
78198;BME280;67472;51.554;7.812;2023-08-01T08:44:55;99361.28;;;17.99;100.00
78198;BME280;67472;51.554;7.812;2023-08-01T08:47:42;99334.56;;;17.92;100.00
78198;BME280;67472;51.554;7.812;2023-08-01T08:50:33;99314.00;;;17.80;100.00
78198;BME280;67472;51.554;7.812;2023-08-01T08:53:21;99314.63;;;17.95;100.00
78198;BME280;67472;51.554;7.812;2023-08-01T08:56:08;99297.16;;;17.86;100.00
78198;BME280;67472;51.554;7.812;2023-08-01T08:58:55;99294.66;;;17.97;100.00
78198;BME280;67472;51.554;7.812;2023-08-01T09:01:42;99282.56;;;18.01;100.00
78198;BME280;67472;51.554;7.812;2023-08-01T09:04:29;99273.22;;;18.37;100.00
78198;BME280;67472;51.554;7.812;2023-08-01T09:07:19;99243.91;;;18.61;100.00
78198;BME280;67472;51.554;7.812;2023-08-01T09:10:09;99252.31;;;19.28;100.00
78198;BME280;67472;51.554;7.812;2023-08-01T09:12:55;99204.03;;;19.16;100.00
78198;BME280;67472;51.554;7.812;2023-08-01T09:15:42;99181.88;;;19.27;100.00
78198;BME280;67472;51.554;7.812;2023-08-01T09:18:28;99163.34;;;18.76;100.00
78198;BME280;67472;51.554;7.812;2023-08-01T09:21:17;99165.19;;;18.51;100.00
78198;BME280;67472;51.554;7.812;2023-08-01T09:24:11;99164.38;;;18.75;100.00
78198;BME280;67472;51.554;7.812;2023-08-01T09:27:03;99163.44;;;18.94;100.00
78198;BME280;67472;51.554;7.812;2023-08-01T09:29:50;99164.06;;;19.21;100.00
78198;BME280;67472;51.554;7.812;2023-08-01T09:32:36;99162.09;;;18.79;100.00
78198;BME280;67472;51.554;7.812;2023-08-01T09:35:23;99174.56;;;18.16;100.00
78198;BME280;67472;51.554;7.812;2023-08-01T09:38:09;99193.78;;;17.86;100.00
78198;BME280;67472;51.554;7.812;2023-08-01T09:40:57;99219.66;;;17.92;100.00
78198;BME280;67472;51.554;7.812;2023-08-01T09:43:44;99235.28;;;18.46;100.00
78198;BME280;67472;51.554;7.812;2023-08-01T09:46:30;99225.78;;;18.13;100.00
78198;BME280;67472;51.554;7.812;2023-08-01T09:49:17;99222.47;;;18.17;100.00
78198;BME280;67472;51.554;7.812;2023-08-01T09:52:04;99212.84;;;18.03;100.00
78198;BME280;67472;51.554;7.812;2023-08-01T09:54:50;99229.75;;;17.84;100.00
78198;BME280;67472;51.554;7.812;2023-08-01T09:57:38;99234.88;;;17.85;100.00
78198;BME280;67472;51.554;7.812;2023-08-01T10:00:27;99239.03;;;18.45;100.00
78198;BME280;67472;51.554;7.812;2023-08-01T10:03:14;99224.03;;;18.82;100.00
78198;BME280;67472;51.554;7.812;2023-08-01T10:06:01;99216.38;;;19.17;100.00
78198;BME280;67472;51.554;7.812;2023-08-01T10:08:50;99195.47;;;19.32;100.00
78198;BME280;67472;51.554;7.812;2023-08-01T10:11:38;99181.97;;;19.45;100.00
78198;BME280;67472;51.554;7.812;2023-08-01T10:14:27;99137.25;;;19.46;100.00
78198;BME280;67472;51.554;7.812;2023-08-01T10:17:14;99142.03;;;19.44;100.00
78198;BME280;67472;51.554;7.812;2023-08-01T10:20:03;99134.56;;;20.00;100.00
78198;BME280;67472;51.554;7.812;2023-08-01T10:22:49;99114.97;;;20.36;100.00
78198;BME280;67472;51.554;7.812;2023-08-01T10:25:37;99111.72;;;19.98;100.00
78198;BME280;67472;51.554;7.812;2023-08-01T10:28:31;99090.59;;;19.90;100.00
78198;BME280;67472;51.554;7.812;2023-08-01T10:31:20;99091.38;;;20.08;100.00
78198;BME280;67472;51.554;7.812;2023-08-01T10:34:12;99082.94;;;19.93;100.00
78198;BME280;67472;51.554;7.812;2023-08-01T10:36:59;99083.81;;;20.05;100.00
78198;BME280;67472;51.554;7.812;2023-08-01T10:39:56;99068.03;;;19.97;100.00
78198;BME280;67472;51.554;7.812;2023-08-01T10:42:44;99061.50;;;19.93;100.00
78198;BME280;67472;51.554;7.812;2023-08-01T10:45:30;99063.72;;;20.67;100.00
78198;BME280;67472;51.554;7.812;2023-08-01T10:48:18;99056.59;;;20.84;100.00
78198;BME280;67472;51.554;7.812;2023-08-01T10:51:04;99035.16;;;21.08;100.00
78198;BME280;67472;51.554;7.812;2023-08-01T10:53:50;99024.75;;;20.88;100.00
78198;BME280;67472;51.554;7.812;2023-08-01T10:56:37;99025.78;;;20.52;100.00
78198;BME280;67472;51.554;7.812;2023-08-01T10:59:23;99040.81;;;20.12;100.00
78198;BME280;67472;51.554;7.812;2023-08-01T11:02:10;99055.56;;;19.73;100.00
78198;BME280;67472;51.554;7.812;2023-08-01T11:04:59;99073.56;;;19.66;100.00
78198;BME280;67472;51.554;7.812;2023-08-01T11:07:53;99124.72;;;18.97;100.00
78198;BME280;67472;51.554;7.812;2023-08-01T11:10:39;99158.28;;;18.24;100.00
78198;BME280;67472;51.554;7.812;2023-08-01T11:13:26;99181.91;;;17.69;100.00
78198;BME280;67472;51.554;7.812;2023-08-01T11:16:12;99200.63;;;17.56;100.00
78198;BME280;67472;51.554;7.812;2023-08-01T11:18:58;99217.47;;;17.24;100.00
78198;BME280;67472;51.554;7.812;2023-08-01T11:21:46;99235.94;;;17.19;100.00
78198;BME280;67472;51.554;7.812;2023-08-01T11:24:32;99249.69;;;17.09;100.00
78198;BME280;67472;51.554;7.812;2023-08-01T11:27:18;99264.25;;;17.20;100.00
78198;BME280;67472;51.554;7.812;2023-08-01T11:30:05;99278.66;;;17.51;100.00
78198;BME280;67472;51.554;7.812;2023-08-01T11:32:53;99291.53;;;18.20;100.00
78198;BME280;67472;51.554;7.812;2023-08-01T11:35:40;99294.41;;;18.89;100.00
78198;BME280;67472;51.554;7.812;2023-08-01T11:38:29;99267.84;;;19.19;100.00
78198;BME280;67472;51.554;7.812;2023-08-01T11:41:18;99254.59;;;18.99;100.00
78198;BME280;67472;51.554;7.812;2023-08-01T11:44:04;99255.41;;;18.69;100.00
78198;BME280;67472;51.554;7.812;2023-08-01T11:46:51;99290.09;;;18.31;100.00
78198;BME280;67472;51.554;7.812;2023-08-01T11:49:37;99332.88;;;18.11;100.00
78198;BME280;67472;51.554;7.812;2023-08-01T11:52:24;99334.56;;;17.79;100.00
78198;BME280;67472;51.554;7.812;2023-08-01T11:55:20;99360.81;;;17.43;100.00
78198;BME280;67472;51.554;7.812;2023-08-01T11:58:06;99362.84;;;16.80;100.00
78198;BME280;67472;51.554;7.812;2023-08-01T12:01:01;99355.31;;;16.50;100.00
78198;BME280;67472;51.554;7.812;2023-08-01T12:03:49;99353.53;;;16.29;100.00
78198;BME280;67472;51.554;7.812;2023-08-01T12:06:36;99365.91;;;16.36;100.00
78198;BME280;67472;51.554;7.812;2023-08-01T12:09:24;99390.31;;;16.68;100.00
78198;BME280;67472;51.554;7.812;2023-08-01T12:12:11;99399.19;;;16.81;100.00
78198;BME280;67472;51.554;7.812;2023-08-01T12:14:57;99402.97;;;17.07;100.00
78198;BME280;67472;51.554;7.812;2023-08-01T12:17:43;99407.97;;;17.23;100.00
78198;BME280;67472;51.554;7.812;2023-08-01T12:20:29;99405.09;;;17.24;100.00
78198;BME280;67472;51.554;7.812;2023-08-01T12:23:15;99391.75;;;17.24;100.00
78198;BME280;67472;51.554;7.812;2023-08-01T12:26:01;99388.50;;;17.42;100.00
78198;BME280;67472;51.554;7.812;2023-08-01T12:28:49;99374.81;;;17.58;100.00
78198;BME280;67472;51.554;7.812;2023-08-01T12:31:35;99371.16;;;18.05;100.00
78198;BME280;67472;51.554;7.812;2023-08-01T12:34:21;99358.59;;;17.92;100.00
78198;BME280;67472;51.554;7.812;2023-08-01T12:37:07;99348.53;;;17.88;100.00
78198;BME280;67472;51.554;7.812;2023-08-01T12:39:53;99341.56;;;17.67;100.00
78198;BME280;67472;51.554;7.812;2023-08-01T12:42:39;99329.63;;;17.57;100.00
78198;BME280;67472;51.554;7.812;2023-08-01T12:45:26;99332.91;;;17.65;100.00
78198;BME280;67472;51.554;7.812;2023-08-01T12:48:13;99337.44;;;17.71;100.00
78198;BME280;67472;51.554;7.812;2023-08-01T12:50:59;99327.75;;;18.03;100.00
78198;BME280;67472;51.554;7.812;2023-08-01T12:53:45;99308.28;;;18.67;100.00
78198;BME280;67472;51.554;7.812;2023-08-01T12:56:32;99290.31;;;19.18;100.00
78198;BME280;67472;51.554;7.812;2023-08-01T12:59:19;99266.94;;;19.32;100.00
78198;BME280;67472;51.554;7.812;2023-08-01T13:02:06;99272.41;;;19.68;100.00
78198;BME280;67472;51.554;7.812;2023-08-01T13:04:53;99253.44;;;19.20;100.00
78198;BME280;67472;51.554;7.812;2023-08-01T13:07:39;99256.69;;;18.97;100.00
78198;BME280;67472;51.554;7.812;2023-08-01T13:10:25;99255.41;;;19.00;100.00
78198;BME280;67472;51.554;7.812;2023-08-01T13:13:11;99259.22;;;18.86;100.00
78198;BME280;67472;51.554;7.812;2023-08-01T13:15:57;99255.75;;;19.10;100.00
78198;BME280;67472;51.554;7.812;2023-08-01T13:18:45;99256.56;;;19.42;100.00
78198;BME280;67472;51.554;7.812;2023-08-01T13:21:33;99243.00;;;19.37;100.00
78198;BME280;67472;51.554;7.812;2023-08-01T13:24:19;99239.50;;;19.36;100.00
78198;BME280;67472;51.554;7.812;2023-08-01T13:27:06;99231.25;;;19.38;100.00
78198;BME280;67472;51.554;7.812;2023-08-01T13:29:53;99226.25;;;19.16;100.00
78198;BME280;67472;51.554;7.812;2023-08-01T13:32:39;99228.94;;;19.16;100.00
78198;BME280;67472;51.554;7.812;2023-08-01T13:35:27;99213.53;;;19.12;100.00
78198;BME280;67472;51.554;7.812;2023-08-01T13:38:13;99218.94;;;19.05;100.00
78198;BME280;67472;51.554;7.812;2023-08-01T13:40:59;99213.63;;;18.99;100.00
78198;BME280;67472;51.554;7.812;2023-08-01T13:43:46;99216.59;;;18.84;100.00
78198;BME280;67472;51.554;7.812;2023-08-01T13:46:32;99225.63;;;18.90;100.00
78198;BME280;67472;51.554;7.812;2023-08-01T13:49:18;99216.00;;;18.82;100.00
78198;BME280;67472;51.554;7.812;2023-08-01T13:52:06;99219.38;;;19.02;100.00
78198;BME280;67472;51.554;7.812;2023-08-01T13:54:52;99219.25;;;19.15;100.00
78198;BME280;67472;51.554;7.812;2023-08-01T13:57:38;99226.63;;;19.27;100.00
78198;BME280;67472;51.554;7.812;2023-08-01T14:00:24;99218.94;;;19.98;100.00
78198;BME280;67472;51.554;7.812;2023-08-01T14:03:10;99203.91;;;20.33;100.00
78198;BME280;67472;51.554;7.812;2023-08-01T14:06:03;99179.97;;;20.50;100.00
78198;BME280;67472;51.554;7.812;2023-08-01T14:08:51;99172.38;;;20.76;100.00
78198;BME280;67472;51.554;7.812;2023-08-01T14:11:37;99183.38;;;20.87;100.00
78198;BME280;67472;51.554;7.812;2023-08-01T14:14:23;99150.56;;;20.84;100.00
78198;BME280;67472;51.554;7.812;2023-08-01T14:17:09;99159.78;;;20.89;100.00
78198;BME280;67472;51.554;7.812;2023-08-01T14:19:55;99163.59;;;21.22;100.00
78198;BME280;67472;51.554;7.812;2023-08-01T14:22:42;99144.59;;;21.35;100.00
78198;BME280;67472;51.554;7.812;2023-08-01T14:25:29;99158.34;;;21.39;100.00
78198;BME280;67472;51.554;7.812;2023-08-01T14:28:16;99161.09;;;20.98;100.00
78198;BME280;67472;51.554;7.812;2023-08-01T14:31:02;99158.88;;;20.53;100.00
78198;BME280;67472;51.554;7.812;2023-08-01T14:33:49;99167.91;;;20.41;100.00